sensor_id;sensor_type;location;lat;lon;timestamp;pressure;altitude;pressure_sealevel;temperature;humidity
9935;BME280;5006;41.828;23.478;2023-02-13T00:01:05;91659.13;;;8.41;50.65
9935;BME280;5006;41.828;23.478;2023-02-13T00:02:10;91657.53;;;8.95;49.21
9935;BME280;5006;41.828;23.478;2023-02-13T00:03:17;91662.19;;;8.98;49.51
9935;BME280;5006;41.828;23.478;2023-02-13T00:04:22;91665.31;;;9.00;49.25
9935;BME280;5006;41.828;23.478;2023-02-13T00:05:28;91661.25;;;8.90;49.04
9935;BME280;5006;41.828;23.478;2023-02-13T00:06:32;91662.03;;;9.06;48.62
9935;BME280;5006;41.828;23.478;2023-02-13T00:07:38;91657.97;;;9.28;49.27
9935;BME280;5006;41.828;23.478;2023-02-13T00:08:43;91657.50;;;8.79;50.02
9935;BME280;5006;41.828;23.478;2023-02-13T00:09:49;91660.25;;;8.67;50.01
9935;BME280;5006;41.828;23.478;2023-02-13T00:10:54;91661.94;;;8.60;51.21
9935;BME280;5006;41.828;23.478;2023-02-13T00:12:00;91668.16;;;8.91;49.74
9935;BME280;5006;41.828;23.478;2023-02-13T00:13:04;91658.63;;;8.78;50.18
9935;BME280;5006;41.828;23.478;2023-02-13T00:14:10;91667.19;;;8.99;49.27
9935;BME280;5006;41.828;23.478;2023-02-13T00:15:15;91666.81;;;8.85;50.59
9935;BME280;5006;41.828;23.478;2023-02-13T00:16:21;91661.47;;;8.85;50.58
9935;BME280;5006;41.828;23.478;2023-02-13T00:17:26;91665.88;;;8.78;49.41
9935;BME280;5006;41.828;23.478;2023-02-13T00:18:33;91666.53;;;9.02;50.12
9935;BME280;5006;41.828;23.478;2023-02-13T00:19:38;91667.41;;;8.79;49.62
9935;BME280;5006;41.828;23.478;2023-02-13T00:20:44;91669.63;;;9.04;48.55
9935;BME280;5006;41.828;23.478;2023-02-13T00:21:49;91670.34;;;8.47;50.29
9935;BME280;5006;41.828;23.478;2023-02-13T00:22:57;91670.16;;;8.67;50.57
9935;BME280;5006;41.828;23.478;2023-02-13T00:24:01;91675.84;;;8.65;49.66
9935;BME280;5006;41.828;23.478;2023-02-13T00:25:08;91677.75;;;9.08;48.72
9935;BME280;5006;41.828;23.478;2023-02-13T00:26:14;91676.31;;;8.83;49.08
9935;BME280;5006;41.828;23.478;2023-02-13T00:27:21;91672.47;;;9.11;49.40
9935;BME280;5006;41.828;23.478;2023-02-13T00:28:27;91675.94;;;9.58;49.75
9935;BME280;5006;41.828;23.478;2023-02-13T00:29:32;91676.56;;;9.21;48.27
9935;BME280;5006;41.828;23.478;2023-02-13T00:30:37;91673.28;;;9.27;49.33
9935;BME280;5006;41.828;23.478;2023-02-13T00:31:42;91678.28;;;9.13;49.95
9935;BME280;5006;41.828;23.478;2023-02-13T00:32:47;91671.72;;;9.11;48.88
9935;BME280;5006;41.828;23.478;2023-02-13T00:33:52;91672.63;;;9.03;49.10
9935;BME280;5006;41.828;23.478;2023-02-13T00:34:57;91673.78;;;9.17;47.18
9935;BME280;5006;41.828;23.478;2023-02-13T00:36:07;91667.50;;;8.82;46.11
9935;BME280;5006;41.828;23.478;2023-02-13T00:37:13;91667.47;;;9.25;45.24
9935;BME280;5006;41.828;23.478;2023-02-13T00:38:18;91672.63;;;9.03;45.81
9935;BME280;5006;41.828;23.478;2023-02-13T00:39:23;91669.97;;;9.03;45.32
9935;BME280;5006;41.828;23.478;2023-02-13T00:40:30;91661.63;;;9.51;44.96
9935;BME280;5006;41.828;23.478;2023-02-13T00:41:36;91671.72;;;9.11;44.12
9935;BME280;5006;41.828;23.478;2023-02-13T00:42:42;91668.47;;;8.90;44.81
9935;BME280;5006;41.828;23.478;2023-02-13T00:43:47;91670.25;;;9.60;43.58
9935;BME280;5006;41.828;23.478;2023-02-13T00:44:53;91663.34;;;9.59;43.49
9935;BME280;5006;41.828;23.478;2023-02-13T00:45:58;91670.59;;;9.43;44.43
9935;BME280;5006;41.828;23.478;2023-02-13T00:47:03;91669.50;;;10.09;42.67
9935;BME280;5006;41.828;23.478;2023-02-13T00:48:09;91665.88;;;10.55;42.04
9935;BME280;5006;41.828;23.478;2023-02-13T00:49:15;91668.91;;;10.35;42.03
9935;BME280;5006;41.828;23.478;2023-02-13T00:50:20;91661.84;;;10.27;42.80
9935;BME280;5006;41.828;23.478;2023-02-13T00:51:25;91661.09;;;9.61;42.96
9935;BME280;5006;41.828;23.478;2023-02-13T00:52:30;91663.13;;;9.83;43.15
9935;BME280;5006;41.828;23.478;2023-02-13T00:53:36;91672.97;;;10.10;43.06
9935;BME280;5006;41.828;23.478;2023-02-13T00:54:41;91665.25;;;9.93;43.35
9935;BME280;5006;41.828;23.478;2023-02-13T00:55:48;91668.56;;;9.86;43.06
9935;BME280;5006;41.828;23.478;2023-02-13T00:56:53;91664.41;;;10.76;42.29
9935;BME280;5006;41.828;23.478;2023-02-13T00:57:59;91667.22;;;11.25;43.57
9935;BME280;5006;41.828;23.478;2023-02-13T00:59:03;91667.31;;;11.09;46.77
9935;BME280;5006;41.828;23.478;2023-02-13T01:00:10;91666.38;;;11.21;45.17
9935;BME280;5006;41.828;23.478;2023-02-13T01:01:15;91657.69;;;11.72;44.22
9935;BME280;5006;41.828;23.478;2023-02-13T01:02:20;91664.38;;;11.59;44.00
9935;BME280;5006;41.828;23.478;2023-02-13T01:03:25;91661.34;;;11.61;42.88
9935;BME280;5006;41.828;23.478;2023-02-13T01:04:31;91660.03;;;12.00;43.43
9935;BME280;5006;41.828;23.478;2023-02-13T01:05:35;91660.78;;;11.97;42.26
9935;BME280;5006;41.828;23.478;2023-02-13T01:06:41;91654.13;;;12.17;42.90
9935;BME280;5006;41.828;23.478;2023-02-13T01:07:46;91652.63;;;12.45;42.16
9935;BME280;5006;41.828;23.478;2023-02-13T01:08:51;91655.19;;;12.09;42.80
9935;BME280;5006;41.828;23.478;2023-02-13T01:09:56;91655.81;;;11.99;43.39
9935;BME280;5006;41.828;23.478;2023-02-13T01:11:05;91654.41;;;12.08;44.69
9935;BME280;5006;41.828;23.478;2023-02-13T01:12:09;91651.59;;;12.86;44.56
9935;BME280;5006;41.828;23.478;2023-02-13T01:13:17;91652.44;;;12.05;44.31
9935;BME280;5006;41.828;23.478;2023-02-13T01:14:21;91651.59;;;12.86;43.23
9935;BME280;5006;41.828;23.478;2023-02-13T01:15:27;91657.81;;;12.31;43.51
9935;BME280;5006;41.828;23.478;2023-02-13T01:16:32;91654.56;;;12.48;43.73
9935;BME280;5006;41.828;23.478;2023-02-13T01:17:37;91656.34;;;12.08;43.54
9935;BME280;5006;41.828;23.478;2023-02-13T01:18:43;91660.53;;;11.57;42.99
9935;BME280;5006;41.828;23.478;2023-02-13T01:19:49;91655.91;;;11.57;44.09
9935;BME280;5006;41.828;23.478;2023-02-13T01:20:57;91654.59;;;11.25;45.12
9935;BME280;5006;41.828;23.478;2023-02-13T01:22:03;91657.97;;;11.22;45.62
9935;BME280;5006;41.828;23.478;2023-02-13T01:23:07;91654.88;;;11.88;44.68
9935;BME280;5006;41.828;23.478;2023-02-13T01:24:13;91655.00;;;12.24;43.47
9935;BME280;5006;41.828;23.478;2023-02-13T01:25:19;91650.34;;;12.21;42.78
9935;BME280;5006;41.828;23.478;2023-02-13T01:26:25;91658.88;;;12.53;42.63
9935;BME280;5006;41.828;23.478;2023-02-13T01:27:31;91658.91;;;12.27;43.76
9935;BME280;5006;41.828;23.478;2023-02-13T01:28:36;91657.69;;;11.72;44.45
9935;BME280;5006;41.828;23.478;2023-02-13T01:29:42;91662.28;;;11.49;44.05
9935;BME280;5006;41.828;23.478;2023-02-13T01:30:52;91658.13;;;12.00;43.90
9935;BME280;5006;41.828;23.478;2023-02-13T01:31:57;91665.47;;;11.77;44.17
9935;BME280;5006;41.828;23.478;2023-02-13T01:33:06;91667.78;;;11.56;44.76
9935;BME280;5006;41.828;23.478;2023-02-13T01:34:11;91661.28;;;11.57;45.24
9935;BME280;5006;41.828;23.478;2023-02-13T01:35:17;91673.47;;;12.00;45.38
9935;BME280;5006;41.828;23.478;2023-02-13T01:36:23;91669.09;;;12.14;44.53
9935;BME280;5006;41.828;23.478;2023-02-13T01:37:28;91668.19;;;11.81;46.01
9935;BME280;5006;41.828;23.478;2023-02-13T01:38:33;91669.97;;;11.96;44.58
9935;BME280;5006;41.828;23.478;2023-02-13T01:39:38;91655.53;;;12.07;46.18
9935;BME280;5006;41.828;23.478;2023-02-13T01:40:45;91664.63;;;11.99;45.60
9935;BME280;5006;41.828;23.478;2023-02-13T01:41:51;91668.34;;;11.24;47.64
9935;BME280;5006;41.828;23.478;2023-02-13T01:42:57;91673.28;;;11.63;46.92
9935;BME280;5006;41.828;23.478;2023-02-13T01:44:02;91669.97;;;11.73;46.09
9935;BME280;5006;41.828;23.478;2023-02-13T01:45:20;91670.84;;;12.03;45.88
9935;BME280;5006;41.828;23.478;2023-02-13T01:46:28;91667.84;;;12.08;46.02
9935;BME280;5006;41.828;23.478;2023-02-13T01:47:38;91667.50;;;11.87;46.61
9935;BME280;5006;41.828;23.478;2023-02-13T01:48:45;91672.28;;;11.97;46.53
9935;BME280;5006;41.828;23.478;2023-02-13T01:49:58;91673.00;;;11.68;47.33
9935;BME280;5006;41.828;23.478;2023-02-13T01:51:08;91668.16;;;11.77;47.32
9935;BME280;5006;41.828;23.478;2023-02-13T01:52:15;91669.88;;;11.02;47.74
9935;BME280;5006;41.828;23.478;2023-02-13T01:53:24;91669.75;;;10.39;46.71
9935;BME280;5006;41.828;23.478;2023-02-13T01:54:32;91665.06;;;10.17;46.50
9935;BME280;5006;41.828;23.478;2023-02-13T01:55:43;91666.44;;;9.61;47.17
9935;BME280;5006;41.828;23.478;2023-02-13T01:56:53;91661.09;;;9.45;46.97
9935;BME280;5006;41.828;23.478;2023-02-13T01:58:04;91662.47;;;8.65;47.62
9935;BME280;5006;41.828;23.478;2023-02-13T01:59:15;91663.19;;;8.23;48.05
9935;BME280;5006;41.828;23.478;2023-02-13T02:00:22;91669.44;;;8.97;47.14
9935;BME280;5006;41.828;23.478;2023-02-13T02:01:28;91660.56;;;9.09;47.31
9935;BME280;5006;41.828;23.478;2023-02-13T02:02:37;91659.44;;;8.94;46.72
9935;BME280;5006;41.828;23.478;2023-02-13T02:03:46;91665.72;;;9.02;46.98
9935;BME280;5006;41.828;23.478;2023-02-13T02:04:54;91671.28;;;9.09;46.61
9935;BME280;5006;41.828;23.478;2023-02-13T02:06:00;91668.47;;;8.90;47.00
9935;BME280;5006;41.828;23.478;2023-02-13T02:07:10;91662.25;;;8.86;46.48
9935;BME280;5006;41.828;23.478;2023-02-13T02:08:17;91660.22;;;9.26;45.75
9935;BME280;5006;41.828;23.478;2023-02-13T02:09:32;91659.88;;;9.12;46.13
9935;BME280;5006;41.828;23.478;2023-02-13T02:10:38;91660.91;;;9.54;45.36
9935;BME280;5006;41.828;23.478;2023-02-13T02:11:49;91663.19;;;9.21;45.52
9935;BME280;5006;41.828;23.478;2023-02-13T02:13:02;91662.75;;;8.76;46.71
9935;BME280;5006;41.828;23.478;2023-02-13T02:14:09;91668.34;;;8.44;46.93
9935;BME280;5006;41.828;23.478;2023-02-13T02:15:14;91669.22;;;8.75;47.32
9935;BME280;5006;41.828;23.478;2023-02-13T02:16:20;91673.09;;;9.20;46.54
9935;BME280;5006;41.828;23.478;2023-02-13T02:17:26;91673.38;;;10.12;44.48
9935;BME280;5006;41.828;23.478;2023-02-13T02:18:31;91670.78;;;8.48;45.86
9935;BME280;5006;41.828;23.478;2023-02-13T02:19:38;91677.53;;;7.67;48.35
9935;BME280;5006;41.828;23.478;2023-02-13T02:21:31;91672.56;;;8.05;48.49
9935;BME280;5006;41.828;23.478;2023-02-13T02:26:39;91680.84;;;9.10;46.50
9935;BME280;5006;41.828;23.478;2023-02-13T02:28:23;91675.72;;;9.98;45.00
9935;BME280;5006;41.828;23.478;2023-02-13T02:30:04;91683.72;;;9.48;45.25
9935;BME280;5006;41.828;23.478;2023-02-13T02:31:59;91685.78;;;9.39;46.05
9935;BME280;5006;41.828;23.478;2023-02-13T02:33:16;91690.19;;;9.62;45.47
9935;BME280;5006;41.828;23.478;2023-02-13T02:34:28;91683.31;;;9.96;44.86
9935;BME280;5006;41.828;23.478;2023-02-13T02:35:40;91683.44;;;9.37;46.75
9935;BME280;5006;41.828;23.478;2023-02-13T02:36:57;91683.63;;;9.44;46.35
9935;BME280;5006;41.828;23.478;2023-02-13T02:38:21;91680.78;;;9.37;46.55
9935;BME280;5006;41.828;23.478;2023-02-13T02:39:38;91688.19;;;9.13;46.63
9935;BME280;5006;41.828;23.478;2023-02-13T02:40:56;91682.84;;;9.13;47.40
9935;BME280;5006;41.828;23.478;2023-02-13T02:42:18;91684.47;;;9.02;46.63
9935;BME280;5006;41.828;23.478;2023-02-13T02:43:43;91678.22;;;8.55;48.28
9935;BME280;5006;41.828;23.478;2023-02-13T02:44:55;91682.75;;;8.94;47.67
9935;BME280;5006;41.828;23.478;2023-02-13T02:46:10;91684.75;;;8.69;48.56
9935;BME280;5006;41.828;23.478;2023-02-13T02:47:24;91686.06;;;8.48;48.88
9935;BME280;5006;41.828;23.478;2023-02-13T02:48:54;91685.63;;;8.46;48.78
9935;BME280;5006;41.828;23.478;2023-02-13T02:50:26;91685.91;;;8.56;48.26
9935;BME280;5006;41.828;23.478;2023-02-13T02:51:40;91691.81;;;8.23;49.86
9935;BME280;5006;41.828;23.478;2023-02-13T02:52:58;91686.56;;;8.65;49.12
9935;BME280;5006;41.828;23.478;2023-02-13T02:54:18;91699.72;;;8.31;50.64
9935;BME280;5006;41.828;23.478;2023-02-13T02:55:49;91698.88;;;8.97;49.24
9935;BME280;5006;41.828;23.478;2023-02-13T02:57:04;91696.81;;;9.06;48.19
9935;BME280;5006;41.828;23.478;2023-02-13T02:58:18;91695.66;;;9.35;47.63
9935;BME280;5006;41.828;23.478;2023-02-13T02:59:43;91694.63;;;8.96;46.87
9935;BME280;5006;41.828;23.478;2023-02-13T03:01:10;91695.94;;;8.08;49.72
9935;BME280;5006;41.828;23.478;2023-02-13T03:02:38;91705.28;;;7.90;50.12
9935;BME280;5006;41.828;23.478;2023-02-13T03:04:02;91708.19;;;7.97;50.21
9935;BME280;5006;41.828;23.478;2023-02-13T03:05:28;91702.84;;;8.09;49.93
9935;BME280;5006;41.828;23.478;2023-02-13T03:06:55;91711.31;;;7.75;50.66
9935;BME280;5006;41.828;23.478;2023-02-13T03:08:04;91713.78;;;7.92;50.09
9935;BME280;5006;41.828;23.478;2023-02-13T03:09:12;91721.00;;;7.92;50.57
9935;BME280;5006;41.828;23.478;2023-02-13T03:10:37;91723.00;;;7.47;50.43
9935;BME280;5006;41.828;23.478;2023-02-13T03:12:02;91722.75;;;8.12;50.41
9935;BME280;5006;41.828;23.478;2023-02-13T03:13:36;91719.84;;;8.95;49.19
9935;BME280;5006;41.828;23.478;2023-02-13T03:14:43;91724.31;;;8.64;49.39
9935;BME280;5006;41.828;23.478;2023-02-13T03:15:50;91727.72;;;8.76;48.73
9935;BME280;5006;41.828;23.478;2023-02-13T03:17:16;91728.53;;;9.20;47.33
9935;BME280;5006;41.828;23.478;2023-02-13T03:18:43;91722.25;;;9.43;46.76
9935;BME280;5006;41.828;23.478;2023-02-13T03:20:14;91723.72;;;9.56;46.81
9935;BME280;5006;41.828;23.478;2023-02-13T03:21:46;91728.06;;;9.18;46.72
9935;BME280;5006;41.828;23.478;2023-02-13T03:23:13;91727.16;;;8.83;46.68
9935;BME280;5006;41.828;23.478;2023-02-13T03:24:24;91727.00;;;8.91;46.60
9935;BME280;5006;41.828;23.478;2023-02-13T03:25:37;91734.13;;;8.60;46.76
9935;BME280;5006;41.828;23.478;2023-02-13T03:26:52;91722.25;;;8.46;46.36
9935;BME280;5006;41.828;23.478;2023-02-13T03:28:10;91727.16;;;8.83;46.55
9935;BME280;5006;41.828;23.478;2023-02-13T03:29:43;91724.47;;;8.83;45.91
9935;BME280;5006;41.828;23.478;2023-02-13T03:31:12;91727.09;;;8.95;45.99
9935;BME280;5006;41.828;23.478;2023-02-13T03:32:28;91731.94;;;8.50;46.23
9935;BME280;5006;41.828;23.478;2023-02-13T03:33:47;91729.44;;;8.69;46.60
9935;BME280;5006;41.828;23.478;2023-02-13T03:35:03;91733.94;;;8.53;47.09
9935;BME280;5006;41.828;23.478;2023-02-13T03:36:43;91736.22;;;8.66;46.85
9935;BME280;5006;41.828;23.478;2023-02-13T03:38:12;91735.81;;;8.64;46.26
9935;BME280;5006;41.828;23.478;2023-02-13T03:39:22;91732.34;;;8.64;45.98
9935;BME280;5006;41.828;23.478;2023-02-13T03:40:34;91730.66;;;8.32;46.93
9935;BME280;5006;41.828;23.478;2023-02-13T03:41:43;91740.69;;;7.99;46.86
9935;BME280;5006;41.828;23.478;2023-02-13T03:42:52;91740.03;;;7.78;47.47
9935;BME280;5006;41.828;23.478;2023-02-13T03:44:06;91738.69;;;7.96;47.70
9935;BME280;5006;41.828;23.478;2023-02-13T03:45:18;91731.34;;;7.45;48.76
9935;BME280;5006;41.828;23.478;2023-02-13T03:46:50;91722.31;;;7.98;47.74
9935;BME280;5006;41.828;23.478;2023-02-13T03:48:00;91728.75;;;8.33;47.04
9935;BME280;5006;41.828;23.478;2023-02-13T03:49:17;91739.91;;;8.23;47.04
9935;BME280;5006;41.828;23.478;2023-02-13T03:50:43;91726.88;;;8.21;47.15
9935;BME280;5006;41.828;23.478;2023-02-13T03:51:53;91722.22;;;8.30;46.49
9935;BME280;5006;41.828;23.478;2023-02-13T03:53:02;91728.00;;;8.32;46.24
9935;BME280;5006;41.828;23.478;2023-02-13T03:54:16;91720.69;;;7.93;46.55
9935;BME280;5006;41.828;23.478;2023-02-13T03:55:26;91729.13;;;7.47;48.66
9935;BME280;5006;41.828;23.478;2023-02-13T03:56:52;91724.78;;;7.43;48.34
9935;BME280;5006;41.828;23.478;2023-02-13T03:58:18;91736.16;;;7.64;48.60
9935;BME280;5006;41.828;23.478;2023-02-13T03:59:44;91728.91;;;7.64;48.40
9935;BME280;5006;41.828;23.478;2023-02-13T04:00:53;91721.53;;;7.37;48.70
9935;BME280;5006;41.828;23.478;2023-02-13T04:02:04;91728.69;;;7.81;47.85
9935;BME280;5006;41.828;23.478;2023-02-13T04:03:15;91727.88;;;8.05;47.91
9935;BME280;5006;41.828;23.478;2023-02-13T04:04:30;91722.97;;;8.07;47.46
9935;BME280;5006;41.828;23.478;2023-02-13T04:05:42;91719.63;;;8.22;46.23
9935;BME280;5006;41.828;23.478;2023-02-13T04:06:49;91731.91;;;7.99;46.83
9935;BME280;5006;41.828;23.478;2023-02-13T04:07:57;91728.34;;;7.83;47.35
9935;BME280;5006;41.828;23.478;2023-02-13T04:09:02;91729.56;;;7.85;46.60
9935;BME280;5006;41.828;23.478;2023-02-13T04:10:11;91723.47;;;7.49;47.40
9935;BME280;5006;41.828;23.478;2023-02-13T04:11:23;91736.34;;;7.59;47.31
9935;BME280;5006;41.828;23.478;2023-02-13T04:12:36;91735.72;;;7.74;47.55
9935;BME280;5006;41.828;23.478;2023-02-13T04:13:45;91733.69;;;7.71;47.38
9935;BME280;5006;41.828;23.478;2023-02-13T04:14:56;91726.47;;;7.71;46.54
9935;BME280;5006;41.828;23.478;2023-02-13T04:16:07;91733.47;;;7.40;47.72
9935;BME280;5006;41.828;23.478;2023-02-13T04:17:18;91731.25;;;7.54;47.52
9935;BME280;5006;41.828;23.478;2023-02-13T04:18:27;91739.13;;;7.62;47.02
9935;BME280;5006;41.828;23.478;2023-02-13T04:19:36;91745.34;;;8.02;46.45
9935;BME280;5006;41.828;23.478;2023-02-13T04:20:41;91744.03;;;7.96;46.47
9935;BME280;5006;41.828;23.478;2023-02-13T04:21:50;91747.59;;;8.00;46.80
9935;BME280;5006;41.828;23.478;2023-02-13T04:23:04;91744.28;;;7.67;47.44
9935;BME280;5006;41.828;23.478;2023-02-13T04:24:11;91749.34;;;7.36;47.22
9935;BME280;5006;41.828;23.478;2023-02-13T04:25:16;91751.28;;;7.48;47.89
9935;BME280;5006;41.828;23.478;2023-02-13T04:26:23;91747.50;;;7.73;47.10
9935;BME280;5006;41.828;23.478;2023-02-13T04:27:28;91753.59;;;7.73;47.41
9935;BME280;5006;41.828;23.478;2023-02-13T04:28:33;91748.81;;;6.98;48.48
9935;BME280;5006;41.828;23.478;2023-02-13T04:29:38;91752.13;;;7.28;48.00
9935;BME280;5006;41.828;23.478;2023-02-13T04:30:44;91758.94;;;7.05;48.74
9935;BME280;5006;41.828;23.478;2023-02-13T04:31:49;91754.38;;;7.62;47.95
9935;BME280;5006;41.828;23.478;2023-02-13T04:32:54;91752.16;;;7.88;47.68
9935;BME280;5006;41.828;23.478;2023-02-13T04:33:59;91754.50;;;7.89;46.57
9935;BME280;5006;41.828;23.478;2023-02-13T04:35:07;91764.88;;;7.22;48.25
9935;BME280;5006;41.828;23.478;2023-02-13T04:36:12;91756.38;;;6.96;48.89
9935;BME280;5006;41.828;23.478;2023-02-13T04:37:18;91765.47;;;7.40;48.00
9935;BME280;5006;41.828;23.478;2023-02-13T04:38:22;91764.28;;;7.73;47.16
9935;BME280;5006;41.828;23.478;2023-02-13T04:39:27;91760.03;;;7.48;47.55
9935;BME280;5006;41.828;23.478;2023-02-13T04:40:32;91765.59;;;7.43;46.98
9935;BME280;5006;41.828;23.478;2023-02-13T04:41:38;91766.38;;;7.44;47.46
9935;BME280;5006;41.828;23.478;2023-02-13T04:42:46;91765.69;;;7.23;47.59
9935;BME280;5006;41.828;23.478;2023-02-13T04:43:51;91769.38;;;7.42;48.42
9935;BME280;5006;41.828;23.478;2023-02-13T04:44:56;91772.94;;;7.02;48.69
9935;BME280;5006;41.828;23.478;2023-02-13T04:46:01;91773.06;;;6.73;49.44
9935;BME280;5006;41.828;23.478;2023-02-13T04:47:07;91771.94;;;6.94;48.78
9935;BME280;5006;41.828;23.478;2023-02-13T04:48:12;91778.50;;;6.76;49.79
9935;BME280;5006;41.828;23.478;2023-02-13T04:49:17;91778.00;;;6.62;49.40
9935;BME280;5006;41.828;23.478;2023-02-13T04:50:24;91782.38;;;6.46;50.34
9935;BME280;5006;41.828;23.478;2023-02-13T04:51:30;91783.44;;;6.86;49.84
9935;BME280;5006;41.828;23.478;2023-02-13T04:52:36;91781.34;;;6.92;49.44
9935;BME280;5006;41.828;23.478;2023-02-13T04:53:41;91775.78;;;7.17;49.33
9935;BME280;5006;41.828;23.478;2023-02-13T04:54:46;91787.25;;;7.30;49.36
9935;BME280;5006;41.828;23.478;2023-02-13T04:55:51;91787.84;;;7.03;49.50
9935;BME280;5006;41.828;23.478;2023-02-13T04:56:55;91782.50;;;7.03;48.93
9935;BME280;5006;41.828;23.478;2023-02-13T04:58:01;91787.91;;;6.41;49.82
9935;BME280;5006;41.828;23.478;2023-02-13T04:59:06;91778.66;;;6.39;51.09
9935;BME280;5006;41.828;23.478;2023-02-13T05:00:12;91776.97;;;6.34;50.81
9935;BME280;5006;41.828;23.478;2023-02-13T05:01:17;91780.50;;;5.98;51.26
9935;BME280;5006;41.828;23.478;2023-02-13T05:02:23;91772.09;;;6.16;51.30
9935;BME280;5006;41.828;23.478;2023-02-13T05:03:28;91781.03;;;6.12;52.06
9935;BME280;5006;41.828;23.478;2023-02-13T05:04:33;91772.00;;;5.75;52.43
9935;BME280;5006;41.828;23.478;2023-02-13T05:05:39;91769.84;;;6.27;51.95
9935;BME280;5006;41.828;23.478;2023-02-13T05:06:45;91773.69;;;5.88;52.30
9935;BME280;5006;41.828;23.478;2023-02-13T05:07:50;91777.34;;;6.04;51.83
9935;BME280;5006;41.828;23.478;2023-02-13T05:08:56;91767.28;;;6.30;51.42
9935;BME280;5006;41.828;23.478;2023-02-13T05:10:01;91771.56;;;6.43;51.31
9935;BME280;5006;41.828;23.478;2023-02-13T05:11:07;91767.03;;;6.64;50.68
9935;BME280;5006;41.828;23.478;2023-02-13T05:12:11;91766.72;;;6.45;51.37
9935;BME280;5006;41.828;23.478;2023-02-13T05:13:17;91778.47;;;6.64;50.54
9935;BME280;5006;41.828;23.478;2023-02-13T05:14:24;91774.22;;;6.84;50.08
9935;BME280;5006;41.828;23.478;2023-02-13T05:15:30;91772.66;;;6.62;50.87
9935;BME280;5006;41.828;23.478;2023-02-13T05:16:35;91772.81;;;6.45;51.02
9935;BME280;5006;41.828;23.478;2023-02-13T05:17:42;91776.66;;;6.56;50.80
9935;BME280;5006;41.828;23.478;2023-02-13T05:18:46;91778.09;;;6.86;50.60
9935;BME280;5006;41.828;23.478;2023-02-13T05:19:52;91771.88;;;6.82;49.14
9935;BME280;5006;41.828;23.478;2023-02-13T05:20:58;91779.56;;;6.63;49.55
9935;BME280;5006;41.828;23.478;2023-02-13T05:22:21;91784.25;;;6.26;49.14
9935;BME280;5006;41.828;23.478;2023-02-13T05:23:44;91775.72;;;6.32;50.49
9935;BME280;5006;41.828;23.478;2023-02-13T05:24:49;91769.94;;;6.30;50.17
9935;BME280;5006;41.828;23.478;2023-02-13T05:25:54;91770.16;;;6.45;50.29
9935;BME280;5006;41.828;23.478;2023-02-13T05:26:59;91774.63;;;6.74;50.17
9935;BME280;5006;41.828;23.478;2023-02-13T05:28:04;91766.06;;;6.68;50.04
9935;BME280;5006;41.828;23.478;2023-02-13T05:29:31;91770.81;;;6.22;50.59
9935;BME280;5006;41.828;23.478;2023-02-13T05:30:36;91772.47;;;6.06;50.06
9935;BME280;5006;41.828;23.478;2023-02-13T05:31:42;91780.16;;;6.48;50.27
9935;BME280;5006;41.828;23.478;2023-02-13T05:32:48;91777.94;;;6.50;50.35
9935;BME280;5006;41.828;23.478;2023-02-13T05:33:54;91784.31;;;6.37;49.39
9935;BME280;5006;41.828;23.478;2023-02-13T05:34:59;91776.53;;;6.32;49.76
9935;BME280;5006;41.828;23.478;2023-02-13T05:36:07;91783.22;;;6.59;49.19
9935;BME280;5006;41.828;23.478;2023-02-13T05:37:11;91788.34;;;6.43;50.17
9935;BME280;5006;41.828;23.478;2023-02-13T05:38:17;91783.16;;;6.67;49.55
9935;BME280;5006;41.828;23.478;2023-02-13T05:39:22;91784.38;;;6.49;49.24
9935;BME280;5006;41.828;23.478;2023-02-13T05:40:28;91786.50;;;6.76;48.48
9935;BME280;5006;41.828;23.478;2023-02-13T05:41:32;91791.00;;;6.03;48.69
9935;BME280;5006;41.828;23.478;2023-02-13T05:42:38;91788.72;;;6.54;48.33
9935;BME280;5006;41.828;23.478;2023-02-13T05:43:43;91791.47;;;6.45;48.99
9935;BME280;5006;41.828;23.478;2023-02-13T05:44:48;91794.69;;;6.92;48.29
9935;BME280;5006;41.828;23.478;2023-02-13T05:46:02;91789.06;;;7.05;47.63
9935;BME280;5006;41.828;23.478;2023-02-13T05:47:07;91794.16;;;6.98;47.55
9935;BME280;5006;41.828;23.478;2023-02-13T05:48:13;91802.44;;;7.17;47.07
9935;BME280;5006;41.828;23.478;2023-02-13T05:49:18;91801.88;;;7.12;46.70
9935;BME280;5006;41.828;23.478;2023-02-13T05:50:23;91800.63;;;7.09;46.29
9935;BME280;5006;41.828;23.478;2023-02-13T05:51:29;91797.53;;;7.52;45.94
9935;BME280;5006;41.828;23.478;2023-02-13T05:52:35;91791.41;;;7.07;46.46
9935;BME280;5006;41.828;23.478;2023-02-13T05:53:40;91796.84;;;6.78;47.25
9935;BME280;5006;41.828;23.478;2023-02-13T05:54:46;91797.38;;;6.51;47.78
9935;BME280;5006;41.828;23.478;2023-02-13T05:55:51;91791.16;;;7.00;47.41
9935;BME280;5006;41.828;23.478;2023-02-13T05:56:56;91792.94;;;6.75;47.00
9935;BME280;5006;41.828;23.478;2023-02-13T05:58:02;91800.47;;;6.94;47.33
9935;BME280;5006;41.828;23.478;2023-02-13T05:59:07;91791.16;;;6.67;47.73
9935;BME280;5006;41.828;23.478;2023-02-13T06:00:14;91797.69;;;6.49;47.51
9935;BME280;5006;41.828;23.478;2023-02-13T06:01:19;91801.22;;;6.82;47.67
9935;BME280;5006;41.828;23.478;2023-02-13T06:02:25;91805.13;;;7.17;47.51
9935;BME280;5006;41.828;23.478;2023-02-13T06:03:31;91797.97;;;7.09;47.18
9935;BME280;5006;41.828;23.478;2023-02-13T06:04:36;91804.78;;;7.19;47.52
9935;BME280;5006;41.828;23.478;2023-02-13T06:05:41;91804.72;;;7.39;47.41
9935;BME280;5006;41.828;23.478;2023-02-13T06:06:47;91806.53;;;7.59;46.52
9935;BME280;5006;41.828;23.478;2023-02-13T06:07:53;91801.09;;;7.11;47.80
9935;BME280;5006;41.828;23.478;2023-02-13T06:08:58;91796.63;;;7.36;47.66
9935;BME280;5006;41.828;23.478;2023-02-13T06:10:04;91806.19;;;7.49;47.30
9935;BME280;5006;41.828;23.478;2023-02-13T06:11:10;91806.78;;;7.54;46.99
9935;BME280;5006;41.828;23.478;2023-02-13T06:12:16;91795.88;;;7.59;46.84
9935;BME280;5006;41.828;23.478;2023-02-13T06:13:21;91801.25;;;7.27;47.56
9935;BME280;5006;41.828;23.478;2023-02-13T06:14:26;91801.00;;;7.20;48.05
9935;BME280;5006;41.828;23.478;2023-02-13T06:15:32;91806.84;;;7.46;48.21
9935;BME280;5006;41.828;23.478;2023-02-13T06:16:37;91804.19;;;7.58;47.45
9935;BME280;5006;41.828;23.478;2023-02-13T06:17:44;91799.53;;;7.10;48.46
9935;BME280;5006;41.828;23.478;2023-02-13T06:18:48;91803.31;;;7.54;48.22
9935;BME280;5006;41.828;23.478;2023-02-13T06:19:54;91807.91;;;7.77;47.73
9935;BME280;5006;41.828;23.478;2023-02-13T06:20:59;91803.31;;;7.54;47.97
9935;BME280;5006;41.828;23.478;2023-02-13T06:22:06;91806.25;;;8.33;47.01
9935;BME280;5006;41.828;23.478;2023-02-13T06:23:12;91805.91;;;8.10;46.80